• Join FlightAware (Why Join?)
  • Login
  • US Flag 
12:13AM EST


 

Airport Tracker/Info


-or-


 

Live Flight TrackerFlight Track Log ✈ AWI3680 ✈ 11-Jul-2013 ✈ KPHL - KALB

Flight Track Log - Related Links

Times and Time Zones

All times are in EDT time to prevent confusion due to time zone crossing. See the AWI3680 flight status page for this flight to view local times or setup timezone preferences in your user account.

Time Position Orientation Groundspeed Altitude Reporting Facility
EDT Latitude Longitude Course Direction KTS MPH feet Rate Location/Type
06:50PM 39.8500 -75.2833 37° Northeast 161 185 800  Level Philadelphia TRACON
06:51PM 39.8167 -75.3333 229° Southwest 221 254 2,300 1,920 Climbing Philadelphia TRACON
06:52PM 39.7667 -75.3500 194° South 225 259 4,700 2,220 Climbing Philadelphia TRACON
06:53PM 39.8167 -74.8809 90° East  Level FlightAware Approximate
06:53PM 39.7333 -75.3000 131° Southeast 243 280 6,800  Level Philadelphia TRACON
06:54PM 39.8016 -74.7910 105° East  Level FlightAware Approximate
06:54PM 39.7500 -75.2000 78° East 295 339 8,500  Level Philadelphia TRACON
06:55PM 39.7836 -74.7016 105° East  Level FlightAware Approximate
06:56PM 39.8387 -74.6447 37° Northeast  Level FlightAware Approximate
06:56PM 39.7653 -74.9811 85° East 327 376 11,500  Level New York Center
06:57PM 39.7783 -74.8522 82° East 342 394 12,400 1,200 Climbing New York Center
06:58PM 39.7994 -74.7211 78° East 355 409 14,000 1,560 Climbing New York Center
06:59PM 39.8753 -74.6333 42° Northeast 337 388 15,500 1,500 Climbing New York Center
07:00PM 39.9431 -74.5342 48° Northeast 352 405 17,000 1,320 Climbing New York Center
07:01PM 40.0108 -74.4350 48° Northeast 368 423 18,300 1,140 Climbing New York Center
07:02PM 40.0847 -74.3331 47° Northeast 379 436 19,300 900 Climbing New York Center
07:03PM 40.1567 -74.2281 48° Northeast 379 436 20,200 840 Climbing New York Center
07:04PM 40.2525 -74.1567 30° Northeast 379 436 21,000 900 Climbing New York Center
07:05PM 40.3522 -74.1017 23° Northeast 379 436 22,100 960 Climbing New York Center
07:06PM 40.4578 -74.0469 22° Northeast 384 442 23,000 900 Climbing New York Center
07:07PM 40.5594 -73.9889 23° Northeast 391 450 23,900 360 Climbing New York Center
07:09PM 40.7319 -73.9000 21° North 389 448 24,000  Climbing Boston Center
07:10PM 40.8269 -73.8225 32° Northeast 394 453 24,000  Level Boston Center
07:11PM 40.9031 -73.7308 42° Northeast 405 466 24,000 -420 Level Boston Center
07:12PM 41.0206 -73.6394 30° Northeast 405 466 23,100 -540 Descending Boston Center
07:13PM 41.1275 -73.5864 20° North 400 460 23,000 -420 Descending Boston Center
07:14PM 41.2319 -73.5633 North 388 447 22,200 -1,380 Descending Boston Center
07:15PM 41.3569 -73.5600 North 383 441 20,000 -1,140 Descending Boston Center
07:16PM 41.4592 -73.5564 North 372 428 20,000 -780 Level Boston Center
07:17PM 41.5592 -73.5525 North 349 402 18,500 -1,500 Descending Boston Center
07:18PM 41.6425 -73.5483 North 326 375 17,100 -1,500 Descending Boston Center
07:19PM 41.7386 -73.5444 North 326 375 15,500 -1,500 Descending Boston Center
07:20PM 41.8178 -73.5403 North 315 362 14,100 -1,440 Descending Boston Center
07:21PM 41.8969 -73.5361 North 315 362 12,700 -1,440 Descending Boston Center
07:22PM 42.0158 -73.5328 North 306 352 11,000 -900 Descending Boston Center
07:23PM 42.0825 -73.5311 North 306 352 11,000  Level Boston Center
07:24PM 42.1661 -73.5183 North 300 345 11,000 -600 Level Boston Center
07:25PM 42.2431 -73.5394 349° North 293 337 9,800 -1,560 Descending Boston Center
07:26PM 42.3092 -73.5967 327° Northwest 278 320 7,900 -1,680 Descending Boston Center
07:27PM 42.3628 -73.6372 331° Northwest 278 320 6,500 -1,800 Descending Boston Center
07:28PM 42.4350 -73.6975 328° Northwest 272 313 4,300 -1,920 Descending Boston Center
07:29PM 42.4908 -73.7436 329° Northwest 262 302 2,700 -1,200 Descending Boston Center
07:30PM 42.5508 -73.7900 330° Northwest 245 282 2,000 -360 Descending Boston Center
07:31PM 42.5967 -73.7967 354° North 219 252 2,000 -180 Level Boston Center
07:33PM 42.6714 -73.8039 356° North 164 189 1,600 -360 Descending Boston Center